createdAt,value
2024-03-05T00:03:35.889Z,98.35
2024-03-05T00:07:38.029Z,100.45
2024-03-05T00:11:40.037Z,105.10
2024-03-05T00:15:41.969Z,94.75
2024-03-05T00:19:45.428Z,94.72
2024-03-05T00:23:47.566Z,89.50
2024-03-05T00:27:49.663Z,82.88
2024-03-05T00:31:52.084Z,74.68
2024-03-05T00:35:55.644Z,82.22
2024-03-05T00:39:57.672Z,84.32
2024-03-05T00:43:59.639Z,84.68
2024-03-05T00:48:01.855Z,82.38
2024-03-05T00:52:05.979Z,86.45
2024-03-05T00:56:08.623Z,81.55
2024-03-05T01:00:11.697Z,85.22
2024-03-05T01:04:13.830Z,83.55
2024-03-05T01:08:17.227Z,81.22
2024-03-05T01:12:19.331Z,75.32
2024-03-05T01:16:21.268Z,71.28
2024-03-05T01:20:23.321Z,73.40
2024-03-05T01:24:26.941Z,72.00
2024-03-05T01:28:28.867Z,74.50
2024-03-05T01:32:31.086Z,72.65
2024-03-05T01:36:33.132Z,62.80
2024-03-05T01:40:36.936Z,77.07
2024-03-05T01:44:38.888Z,62.40
2024-03-05T01:48:41.745Z,73.55
2024-03-05T01:52:45.250Z,66.93
2024-03-05T01:56:53.453Z,68.15
2024-03-05T02:00:55.739Z,67.38
2024-03-05T02:04:59.432Z,66.15
2024-03-05T02:09:01.662Z,74.28
2024-03-05T02:13:05.779Z,70.07
2024-03-05T02:17:09.487Z,74.18
2024-03-05T02:21:21.148Z,77.65
2024-03-05T02:25:23.148Z,69.85
2024-03-05T02:29:25.401Z,72.47
2024-03-05T02:33:27.487Z,77.00
2024-03-05T02:37:31.125Z,70.55
2024-03-05T02:41:33.136Z,65.20
2024-03-05T02:45:35.085Z,83.68
2024-03-05T02:49:37.312Z,67.15
2024-03-05T02:53:41.022Z,83.80
2024-03-05T02:57:43.331Z,68.93
2024-03-05T03:01:47.261Z,73.05
2024-03-05T03:05:49.464Z,72.25
2024-03-05T03:09:52.951Z,82.50
2024-03-05T03:13:54.951Z,82.60
2024-03-05T03:17:57.202Z,70.10
2024-03-05T03:21:59.628Z,79.82
2024-03-05T03:26:03.960Z,77.03
2024-03-05T03:30:07.179Z,87.20
2024-03-05T03:34:08.984Z,77.78
2024-03-05T03:38:11.212Z,86.97
2024-03-05T03:42:14.862Z,86.68
2024-03-05T03:46:16.834Z,85.38
2024-03-05T03:50:18.925Z,76.28
2024-03-05T03:54:20.928Z,72.65
2024-03-05T03:58:24.441Z,75.28
2024-03-05T04:02:26.461Z,93.00
2024-03-05T04:06:28.534Z,74.18
2024-03-05T04:10:30.679Z,76.93
2024-03-05T04:14:34.135Z,86.20
2024-03-05T04:18:36.247Z,84.60
2024-03-05T04:22:38.868Z,70.30
2024-03-05T04:26:41.172Z,69.25
2024-03-05T04:30:44.943Z,61.53
2024-03-05T04:34:47.023Z,71.93
2024-03-05T04:38:49.311Z,86.65
2024-03-05T04:42:51.299Z,62.60
2024-03-05T04:46:55.036Z,58.42
2024-03-05T04:50:57.229Z,67.22
2024-03-05T04:54:58.981Z,62.92
2024-03-05T04:59:01.217Z,69.30
2024-03-05T05:03:05.976Z,65.28
2024-03-05T05:07:08.437Z,62.65
2024-03-05T05:11:10.998Z,70.22
2024-03-05T05:15:13.658Z,67.28
2024-03-05T05:19:17.933Z,72.82
2024-03-05T05:23:19.925Z,72.82
2024-03-05T05:27:21.886Z,69.45
2024-03-05T05:31:25.393Z,64.03
2024-03-05T05:35:28.723Z,71.95
2024-03-05T05:39:30.843Z,77.70
2024-03-05T05:43:33.016Z,75.38
2024-03-05T05:47:35.386Z,72.15
2024-03-05T05:51:39.061Z,69.65
2024-03-05T05:55:41.322Z,72.05
2024-03-05T05:59:43.494Z,73.53
2024-03-05T06:03:45.630Z,70.53
2024-03-05T06:07:49.256Z,70.80
2024-03-05T06:11:51.344Z,62.60
2024-03-05T06:15:54.237Z,66.65
2024-03-05T06:19:59.724Z,69.75
2024-03-05T06:24:04.014Z,67.53
2024-03-05T06:28:08.988Z,61.35
2024-03-05T06:32:11.180Z,59.67
2024-03-05T06:36:13.576Z,61.25
2024-03-05T06:40:18.791Z,59.20
2024-03-05T06:44:20.690Z,57.35
2024-03-05T06:48:22.683Z,63.05
2024-03-05T06:52:24.701Z,57.53
2024-03-05T06:56:28.114Z,52.15
2024-03-05T07:00:30.218Z,59.30
2024-03-05T07:04:32.088Z,53.88
2024-03-05T07:08:35.196Z,61.78
2024-03-05T07:12:38.706Z,53.47
2024-03-05T07:16:40.630Z,63.78
2024-03-05T07:20:43.695Z,53.17
2024-03-05T07:24:46.194Z,53.50
2024-03-05T07:28:49.851Z,62.03
2024-03-05T07:32:52.044Z,58.03
2024-03-05T07:36:54.093Z,65.13
2024-03-05T07:40:56.114Z,45.17
2024-03-05T07:44:59.599Z,51.60
2024-03-05T07:49:01.493Z,61.63
2024-03-05T07:53:03.672Z,54.33
2024-03-05T07:57:06.124Z,62.88
2024-03-05T08:01:09.675Z,37.97
2024-03-05T08:05:12.055Z,45.95
2024-03-05T08:09:14.167Z,52.53
2024-03-05T08:13:16.118Z,48.15
2024-03-05T08:17:19.446Z,45.70
2024-03-05T08:21:21.424Z,42.55
2024-03-05T08:25:24.503Z,34.58
2024-03-05T08:29:26.667Z,48.88
2024-03-05T08:33:30.387Z,39.05
2024-03-05T08:37:32.835Z,59.03
2024-03-05T08:41:34.809Z,50.20
2024-03-05T08:45:36.549Z,49.78
2024-03-05T08:49:39.917Z,52.40
2024-03-05T08:53:42.706Z,53.72
2024-03-05T08:57:45.385Z,61.47
2024-03-05T09:01:47.354Z,34.40
2024-03-05T09:05:50.876Z,32.90
2024-03-05T09:09:52.990Z,44.53
2024-03-05T09:13:54.979Z,32.05
2024-03-05T09:17:57.077Z,30.88
2024-03-05T09:22:00.594Z,33.58
2024-03-05T09:26:02.626Z,38.13
2024-03-05T09:30:06.062Z,42.45
2024-03-05T09:34:07.974Z,34.70
2024-03-05T09:38:11.425Z,37.33
2024-03-05T09:42:13.927Z,34.63
2024-03-05T09:46:16.534Z,49.45
2024-03-05T09:50:19.688Z,45.03
2024-03-05T09:54:23.118Z,46.42
2024-03-05T09:58:34.642Z,52.65
2024-03-05T10:06:38.760Z,58.85
2024-03-05T10:10:44.115Z,47.22
2024-03-05T10:14:46.488Z,60.20
2024-03-05T10:18:49.093Z,60.25
2024-03-05T10:22:52.404Z,54.55
2024-03-05T10:26:56.042Z,55.78
2024-03-05T10:31:00.080Z,46.58
2024-03-05T10:35:02.467Z,59.75
2024-03-05T10:39:05.260Z,55.55
2024-03-05T10:43:10.355Z,44.70
2024-03-05T10:47:13.199Z,55.80
2024-03-05T10:51:16.658Z,39.55
2024-03-05T10:55:19.004Z,54.80
2024-03-05T10:59:22.720Z,55.33
2024-03-05T11:03:38.062Z,49.35
2024-03-05T11:07:40.206Z,57.33
2024-03-05T11:11:47.691Z,48.58
2024-03-05T11:15:52.225Z,34.00
2024-03-05T11:19:54.754Z,46.22
2024-03-05T11:23:56.955Z,60.53
2024-03-05T11:27:59.377Z,53.90
2024-03-05T11:32:03.675Z,52.10
2024-03-05T11:36:16.942Z,54.58
2024-03-05T11:40:20.934Z,52.35
2024-03-05T11:44:53.562Z,54.03
2024-03-05T11:49:01.105Z,45.05
2024-03-05T11:53:03.258Z,54.10
2024-03-05T11:57:06.025Z,48.60
2024-03-05T12:01:09.092Z,51.92
2024-03-05T12:05:12.763Z,33.90
2024-03-05T12:09:15.985Z,35.80
2024-03-05T12:13:19.882Z,49.13
2024-03-05T12:17:23.062Z,38.80
2024-03-05T12:21:27.919Z,49.00
2024-03-05T12:25:30.919Z,74.15
2024-03-05T12:29:35.311Z,57.55
2024-03-05T12:33:37.710Z,80.43
2024-03-05T12:37:41.163Z,42.38
2024-03-05T12:41:43.446Z,52.50
2024-03-05T12:45:46.164Z,61.22
2024-03-05T12:49:49.891Z,30.63
2024-03-05T12:54:02.229Z,51.85
2024-03-05T12:58:09.013Z,56.30
2024-03-05T13:02:11.060Z,40.78
2024-03-05T13:06:13.090Z,49.30
2024-03-05T13:10:16.844Z,47.63
2024-03-05T13:14:22.338Z,55.88
2024-03-05T13:18:26.356Z,51.28
2024-03-05T13:22:28.320Z,55.85
2024-03-05T13:26:32.184Z,53.40
2024-03-05T13:30:34.194Z,55.92
2024-03-05T13:34:36.618Z,32.45
2024-03-05T13:38:38.870Z,41.72
2024-03-05T13:42:42.261Z,41.72
2024-03-05T13:46:44.234Z,42.97
2024-03-05T13:50:46.364Z,56.92
2024-03-05T13:54:49.196Z,30.80
2024-03-05T13:58:52.815Z,31.25
2024-03-05T14:02:54.997Z,52.28
2024-03-05T14:06:57.305Z,57.60
2024-03-05T14:10:59.466Z,50.17
2024-03-05T14:15:03.009Z,61.42
2024-03-05T14:19:05.097Z,45.88
2024-03-05T14:23:07.520Z,56.15
2024-03-05T14:27:09.918Z,35.17
2024-03-05T14:31:13.566Z,58.45
2024-03-05T14:35:15.736Z,58.72
2024-03-05T14:39:18.501Z,64.90
2024-03-05T14:43:20.744Z,50.03
2024-03-05T14:47:24.710Z,41.25
2024-03-05T14:51:26.933Z,29.13
2024-03-05T14:55:29.137Z,53.95
2024-03-05T14:59:31.219Z,69.72
2024-03-05T15:03:34.874Z,50.58
2024-03-05T15:07:37.090Z,35.50
2024-03-05T15:11:39.823Z,28.83
2024-03-05T15:15:41.836Z,49.90
2024-03-05T15:19:45.514Z,54.55
2024-03-05T15:23:47.675Z,51.55
2024-03-05T15:28:00.840Z,31.17
2024-03-05T15:32:06.001Z,57.88
2024-03-05T15:36:09.867Z,43.22
2024-03-05T15:40:12.785Z,26.50
2024-03-05T15:44:14.722Z,35.88
2024-03-05T15:48:16.947Z,38.70
2024-03-05T15:52:21.486Z,44.85
2024-03-05T15:56:23.696Z,50.38
2024-03-05T16:00:26.897Z,53.63
2024-03-05T16:04:48.969Z,30.40
2024-03-05T16:08:52.289Z,24.55
2024-03-05T16:12:54.846Z,42.67
2024-03-05T16:16:56.889Z,44.53
2024-03-05T16:20:58.884Z,33.40
2024-03-05T16:25:02.483Z,49.70
2024-03-05T16:29:04.708Z,26.30
2024-03-05T16:33:07.298Z,49.13
2024-03-05T16:37:09.829Z,47.55
2024-03-05T16:41:13.576Z,56.28
2024-03-05T16:45:16.989Z,32.05
2024-03-05T16:49:19.501Z,53.35
2024-03-05T16:53:21.712Z,70.28
2024-03-05T16:57:25.317Z,30.15
2024-03-05T17:01:27.507Z,27.33
2024-03-05T17:05:30.702Z,53.03
2024-03-05T17:09:33.605Z,34.35
2024-03-05T17:13:36.914Z,44.35
2024-03-05T17:17:39.113Z,27.88
2024-03-05T17:21:41.070Z,31.23
2024-03-05T17:25:43.660Z,51.38
2024-03-05T17:29:47.850Z,47.70
2024-03-05T17:33:49.659Z,47.30
2024-03-05T17:37:51.782Z,42.90
2024-03-05T17:41:54.815Z,53.13
2024-03-05T17:45:58.182Z,48.03
2024-03-05T17:50:00.484Z,41.05
2024-03-05T17:54:02.588Z,39.70
2024-03-05T17:58:04.926Z,41.88
2024-03-05T18:02:08.921Z,31.15
2024-03-05T18:06:11.221Z,44.33
2024-03-05T18:10:14.007Z,55.92
2024-03-05T18:14:15.885Z,47.13
2024-03-05T18:18:19.677Z,48.58
2024-03-05T18:22:22.244Z,27.00
2024-03-05T18:26:24.174Z,32.13
2024-03-05T18:30:27.049Z,39.67
2024-03-05T18:34:30.366Z,44.08
2024-03-05T18:38:32.578Z,39.17
2024-03-05T18:42:34.602Z,48.70
2024-03-05T18:46:36.715Z,46.38
2024-03-05T18:50:41.086Z,37.35
2024-03-05T18:54:43.200Z,41.58
2024-03-05T18:58:46.556Z,44.05
2024-03-05T19:02:49.453Z,28.70
2024-03-05T19:06:53.001Z,50.25
2024-03-05T19:10:55.272Z,46.53
2024-03-05T19:14:57.369Z,43.85
2024-03-05T19:19:00.237Z,28.48
2024-03-05T19:23:03.665Z,40.80
2024-03-05T19:27:05.742Z,40.65
2024-03-05T19:31:07.517Z,41.42
2024-03-05T19:35:11.280Z,23.33
2024-03-05T19:39:17.228Z,39.42
2024-03-05T19:43:19.350Z,44.78
2024-03-05T19:47:21.211Z,33.55
2024-03-05T19:51:23.189Z,40.25
2024-03-05T19:55:26.736Z,44.42
2024-03-05T19:59:29.264Z,62.05
2024-03-05T20:03:31.247Z,56.47
2024-03-05T20:07:33.553Z,27.23
2024-03-05T20:11:37.289Z,43.47
2024-03-05T20:15:39.293Z,30.60
2024-03-05T20:19:41.224Z,30.05
2024-03-05T20:23:43.489Z,53.75
2024-03-05T20:27:47.120Z,51.67
2024-03-05T20:31:49.258Z,60.63
2024-03-05T20:35:51.257Z,46.00
2024-03-05T20:39:53.251Z,43.47
2024-03-05T20:43:56.760Z,57.45
2024-03-05T20:47:59.737Z,26.20
2024-03-05T20:52:01.944Z,53.63
2024-03-05T20:56:04.806Z,55.45
2024-03-05T21:00:10.425Z,51.47
2024-03-05T21:04:12.593Z,30.92
2024-03-05T21:08:14.827Z,64.07
2024-03-05T21:12:17.094Z,34.05
2024-03-05T21:16:20.502Z,47.00
2024-03-05T21:20:22.757Z,60.25
2024-03-05T21:24:25.040Z,56.47
2024-03-05T21:28:27.273Z,52.72
2024-03-05T21:32:31.156Z,62.78
2024-03-05T21:36:33.202Z,47.55
2024-03-05T21:40:35.192Z,50.72
2024-03-05T21:44:42.067Z,57.25
2024-03-05T21:48:46.248Z,79.53
2024-03-05T21:52:48.602Z,66.88
2024-03-05T21:56:50.587Z,58.38
2024-03-05T22:00:52.768Z,54.53
2024-03-05T22:04:56.174Z,36.55
2024-03-05T22:08:59.286Z,56.50
2024-03-05T22:13:01.396Z,52.97
2024-03-05T22:17:03.510Z,64.35
2024-03-05T22:21:06.941Z,62.60
2024-03-05T22:25:09.318Z,65.43
2024-03-05T22:29:11.315Z,65.45
2024-03-05T22:33:13.387Z,38.75
2024-03-05T22:37:16.969Z,58.38
2024-03-05T22:41:19.293Z,60.65
2024-03-05T22:45:21.942Z,74.93
2024-03-05T22:49:24.007Z,50.08
2024-03-05T22:53:27.654Z,53.50
2024-03-05T22:57:29.733Z,49.50
2024-03-05T23:01:32.119Z,59.00
2024-03-05T23:05:34.162Z,35.03
2024-03-05T23:09:37.593Z,77.85
2024-03-05T23:13:39.674Z,58.55
2024-03-05T23:17:42.012Z,56.38
2024-03-05T23:21:44.861Z,69.63
2024-03-05T23:25:49.186Z,63.13
2024-03-05T23:29:51.595Z,63.65
2024-03-05T23:33:53.593Z,56.35
2024-03-05T23:37:55.600Z,68.68
2024-03-05T23:41:58.960Z,66.20
2024-03-05T23:46:00.950Z,58.00
2024-03-05T23:50:03.697Z,60.35
2024-03-05T23:54:05.781Z,66.72
2024-03-05T23:58:09.239Z,63.75
